sensor_id;sensor_type;location;lat;lon;timestamp;pressure;altitude;pressure_sealevel;temperature;humidity
51249;BME280;39642;47.556;18.728;2023-02-16T00:00:26;100902.78;;;21.91;27.29
51249;BME280;39642;47.556;18.728;2023-02-16T00:02:52;100905.38;;;21.92;27.25
51249;BME280;39642;47.556;18.728;2023-02-16T00:05:29;100909.84;;;21.92;27.20
51249;BME280;39642;47.556;18.728;2023-02-16T00:07:57;100901.87;;;21.92;27.17
51249;BME280;39642;47.556;18.728;2023-02-16T00:10:25;100894.78;;;21.92;26.96
51249;BME280;39642;47.556;18.728;2023-02-16T00:12:52;100898.37;;;21.91;27.18
51249;BME280;39642;47.556;18.728;2023-02-16T00:15:36;100896.62;;;21.90;27.16
51249;BME280;39642;47.556;18.728;2023-02-16T00:18:05;100894.84;;;21.91;26.93
51249;BME280;39642;47.556;18.728;2023-02-16T00:20:38;100893.12;;;21.90;27.01
51249;BME280;39642;47.556;18.728;2023-02-16T00:23:04;100898.50;;;21.88;26.97
51249;BME280;39642;47.556;18.728;2023-02-16T00:25:30;100898.50;;;21.88;27.21
51249;BME280;39642;47.556;18.728;2023-02-16T00:27:56;100897.66;;;21.88;27.31
51249;BME280;39642;47.556;18.728;2023-02-16T00:30:22;100890.63;;;21.87;27.22
51249;BME280;39642;47.556;18.728;2023-02-16T00:32:48;100892.41;;;21.86;27.38
51249;BME280;39642;47.556;18.728;2023-02-16T00:35:19;100888.97;;;21.84;27.25
51249;BME280;39642;47.556;18.728;2023-02-16T00:37:46;100890.75;;;21.83;27.49
51249;BME280;39642;47.556;18.728;2023-02-16T00:40:14;100889.91;;;21.83;27.49
51249;BME280;39642;47.556;18.728;2023-02-16T00:42:41;100889.06;;;21.82;27.38
51249;BME280;39642;47.556;18.728;2023-02-16T00:45:14;100890.84;;;21.82;27.48
51249;BME280;39642;47.556;18.728;2023-02-16T00:47:43;100889.97;;;21.81;27.28
51249;BME280;39642;47.556;18.728;2023-02-16T00:52:43;100887.41;;;21.80;26.97
51249;BME280;39642;47.556;18.728;2023-02-16T00:55:17;100878.50;;;21.81;27.03
51249;BME280;39642;47.556;18.728;2023-02-16T00:57:47;100875.00;;;21.80;27.01
51249;BME280;39642;47.556;18.728;2023-02-16T01:00:21;100867.91;;;21.81;26.98
51249;BME280;39642;47.556;18.728;2023-02-16T01:02:48;100867.84;;;21.82;26.88
51249;BME280;39642;47.556;18.728;2023-02-16T01:05:15;100868.69;;;21.83;26.94
51249;BME280;39642;47.556;18.728;2023-02-16T01:07:41;100866.03;;;21.83;26.85
51249;BME280;39642;47.556;18.728;2023-02-16T01:10:28;100870.41;;;21.84;26.87
51249;BME280;39642;47.556;18.728;2023-02-16T01:13:13;100872.13;;;21.85;26.80
51249;BME280;39642;47.556;18.728;2023-02-16T01:15:41;100871.19;;;21.86;26.69
51249;BME280;39642;47.556;18.728;2023-02-16T01:18:07;100864.97;;;21.87;26.68
51249;BME280;39642;47.556;18.728;2023-02-16T01:20:35;100861.38;;;21.88;26.64
51249;BME280;39642;47.556;18.728;2023-02-16T01:23:01;100862.25;;;21.89;26.52
51249;BME280;39642;47.556;18.728;2023-02-16T01:25:27;100864.81;;;21.90;26.53
51249;BME280;39642;47.556;18.728;2023-02-16T01:27:53;100860.37;;;21.91;26.68
51249;BME280;39642;47.556;18.728;2023-02-16T01:30:21;100855.06;;;21.91;26.70
51249;BME280;39642;47.556;18.728;2023-02-16T01:32:48;100858.59;;;21.91;26.70
51249;BME280;39642;47.556;18.728;2023-02-16T01:35:23;100855.94;;;21.91;26.51
51249;BME280;39642;47.556;18.728;2023-02-16T01:37:53;100861.25;;;21.91;26.71
51249;BME280;39642;47.556;18.728;2023-02-16T01:43:27;100858.59;;;21.91;26.70
51249;BME280;39642;47.556;18.728;2023-02-16T01:46:06;100858.66;;;21.90;26.68
51249;BME280;39642;47.556;18.728;2023-02-16T01:48:34;100859.50;;;21.90;26.68
51249;BME280;39642;47.556;18.728;2023-02-16T01:51:04;100857.81;;;21.89;26.67
51249;BME280;39642;47.556;18.728;2023-02-16T01:53:36;100856.06;;;21.88;26.72
51249;BME280;39642;47.556;18.728;2023-02-16T01:56:30;100849.91;;;21.88;26.47
51249;BME280;39642;47.556;18.728;2023-02-16T01:59:00;100844.63;;;21.88;26.45
51249;BME280;39642;47.556;18.728;2023-02-16T02:01:45;100842.91;;;21.87;26.54
51249;BME280;39642;47.556;18.728;2023-02-16T02:04:20;100838.53;;;21.86;26.51
51249;BME280;39642;47.556;18.728;2023-02-16T02:07:06;100827.06;;;21.85;26.51
51249;BME280;39642;47.556;18.728;2023-02-16T02:09:49;100824.47;;;21.83;26.65
51249;BME280;39642;47.556;18.728;2023-02-16T02:12:28;100819.28;;;21.82;26.53
51249;BME280;39642;47.556;18.728;2023-02-16T02:14:57;100827.22;;;21.82;26.84
51249;BME280;39642;47.556;18.728;2023-02-16T02:17:23;100826.34;;;21.81;26.77
51249;BME280;39642;47.556;18.728;2023-02-16T02:28:52;100825.47;;;21.81;26.60
51249;BME280;39642;47.556;18.728;2023-02-16T02:34:29;100824.56;;;21.82;26.56
51249;BME280;39642;47.556;18.728;2023-02-16T02:39:56;100824.47;;;21.83;26.27
51249;BME280;39642;47.556;18.728;2023-02-16T02:42:31;100820.03;;;21.84;25.94
51249;BME280;39642;47.556;18.728;2023-02-16T02:45:09;100819.97;;;21.86;25.98
51249;BME280;39642;47.556;18.728;2023-02-16T02:47:42;100825.19;;;21.87;25.79
51249;BME280;39642;47.556;18.728;2023-02-16T02:53:05;100807.50;;;21.88;25.80
51249;BME280;39642;47.556;18.728;2023-02-16T02:55:35;100808.28;;;21.90;25.87
51249;BME280;39642;47.556;18.728;2023-02-16T02:58:24;100809.13;;;21.90;25.87
51249;BME280;39642;47.556;18.728;2023-02-16T03:01:11;100813.53;;;21.91;25.92
51249;BME280;39642;47.556;18.728;2023-02-16T03:03:43;100817.88;;;21.92;25.87
51249;BME280;39642;47.556;18.728;2023-02-16T03:06:21;100804.62;;;21.92;25.91
51249;BME280;39642;47.556;18.728;2023-02-16T03:08:53;100805.47;;;21.93;25.88
51249;BME280;39642;47.556;18.728;2023-02-16T03:11:22;100807.25;;;21.92;26.04
51249;BME280;39642;47.556;18.728;2023-02-16T03:14:17;100809.00;;;21.93;26.17
51249;BME280;39642;47.556;18.728;2023-02-16T03:16:59;100799.31;;;21.92;26.15
51249;BME280;39642;47.556;18.728;2023-02-16T03:19:47;100794.00;;;21.92;26.16
51249;BME280;39642;47.556;18.728;2023-02-16T03:22:33;100801.19;;;21.90;26.24
51249;BME280;39642;47.556;18.728;2023-02-16T03:25:20;100802.03;;;21.91;26.29
51249;BME280;39642;47.556;18.728;2023-02-16T03:28:07;100801.19;;;21.90;26.29
51249;BME280;39642;47.556;18.728;2023-02-16T03:30:53;100802.13;;;21.89;26.16
51249;BME280;39642;47.556;18.728;2023-02-16T03:33:21;100798.63;;;21.89;26.15
51249;BME280;39642;47.556;18.728;2023-02-16T03:35:48;100797.84;;;21.87;25.95
51249;BME280;39642;47.556;18.728;2023-02-16T03:38:15;100796.94;;;21.86;26.05
51249;BME280;39642;47.556;18.728;2023-02-16T03:40:43;100798.75;;;21.86;26.42
51249;BME280;39642;47.556;18.728;2023-02-16T03:43:10;100790.00;;;21.83;26.06
51249;BME280;39642;47.556;18.728;2023-02-16T03:45:38;100796.16;;;21.84;26.28
51249;BME280;39642;47.556;18.728;2023-02-16T03:48:05;100797.09;;;21.83;26.08
51249;BME280;39642;47.556;18.728;2023-02-16T03:50:31;100790.09;;;21.82;26.14
51249;BME280;39642;47.556;18.728;2023-02-16T03:52:57;100794.53;;;21.81;26.04
51249;BME280;39642;47.556;18.728;2023-02-16T03:55:49;100789.31;;;21.80;26.18
51249;BME280;39642;47.556;18.728;2023-02-16T03:58:20;100793.72;;;21.79;26.22
51249;BME280;39642;47.556;18.728;2023-02-16T04:00:46;100791.97;;;21.80;26.28
51249;BME280;39642;47.556;18.728;2023-02-16T04:03:13;100789.31;;;21.80;26.27
51249;BME280;39642;47.556;18.728;2023-02-16T04:05:39;100790.16;;;21.80;26.28
51249;BME280;39642;47.556;18.728;2023-02-16T04:08:06;100795.47;;;21.80;26.13
51249;BME280;39642;47.556;18.728;2023-02-16T04:10:32;100797.16;;;21.81;26.00
51249;BME280;39642;47.556;18.728;2023-02-16T04:12:58;100793.66;;;21.81;25.66
51249;BME280;39642;47.556;18.728;2023-02-16T04:15:27;100789.22;;;21.81;25.73
51249;BME280;39642;47.556;18.728;2023-02-16T04:17:54;100791.81;;;21.83;25.56
51249;BME280;39642;47.556;18.728;2023-02-16T04:20:22;100800.56;;;21.85;25.29
51249;BME280;39642;47.556;18.728;2023-02-16T04:22:49;100792.59;;;21.85;25.08
51249;BME280;39642;47.556;18.728;2023-02-16T04:25:16;100799.59;;;21.86;25.27
51249;BME280;39642;47.556;18.728;2023-02-16T04:27:43;100790.72;;;21.87;25.01
51249;BME280;39642;47.556;18.728;2023-02-16T04:30:12;100786.28;;;21.88;25.00
51249;BME280;39642;47.556;18.728;2023-02-16T04:32:39;100784.47;;;21.88;25.16
51249;BME280;39642;47.556;18.728;2023-02-16T04:35:06;100789.72;;;21.90;25.28
51249;BME280;39642;47.556;18.728;2023-02-16T04:37:32;100783.56;;;21.89;25.32
51249;BME280;39642;47.556;18.728;2023-02-16T04:39:58;100789.72;;;21.90;25.45
51249;BME280;39642;47.556;18.728;2023-02-16T04:42:24;100788.78;;;21.91;25.57
51249;BME280;39642;47.556;18.728;2023-02-16T04:44:50;100782.63;;;21.90;25.60
51249;BME280;39642;47.556;18.728;2023-02-16T04:47:16;100785.25;;;21.90;25.23
51249;BME280;39642;47.556;18.728;2023-02-16T04:49:42;100785.25;;;21.90;25.28
51249;BME280;39642;47.556;18.728;2023-02-16T04:52:09;100790.56;;;21.90;25.11
51249;BME280;39642;47.556;18.728;2023-02-16T04:54:35;100784.41;;;21.90;24.37
51249;BME280;39642;47.556;18.728;2023-02-16T04:57:01;100788.88;;;21.89;24.88
51249;BME280;39642;47.556;18.728;2023-02-16T04:59:27;100789.78;;;21.88;24.93
51249;BME280;39642;47.556;18.728;2023-02-16T05:01:53;100792.44;;;21.88;24.57
51249;BME280;39642;47.556;18.728;2023-02-16T05:04:19;100787.13;;;21.88;24.97
51249;BME280;39642;47.556;18.728;2023-02-16T05:06:45;100787.13;;;21.88;24.26
51249;BME280;39642;47.556;18.728;2023-02-16T05:09:10;100795.09;;;21.88;24.78
51249;BME280;39642;47.556;18.728;2023-02-16T05:11:36;100791.59;;;21.88;24.62
51249;BME280;39642;47.556;18.728;2023-02-16T05:14:26;100794.22;;;21.88;24.62
51249;BME280;39642;47.556;18.728;2023-02-16T05:17:12;100793.31;;;21.89;24.08
51249;BME280;39642;47.556;18.728;2023-02-16T05:19:40;100788.09;;;21.87;24.16
51249;BME280;39642;47.556;18.728;2023-02-16T05:22:06;100788.94;;;21.88;23.91
51249;BME280;39642;47.556;18.728;2023-02-16T05:24:33;100789.78;;;21.88;23.90
51249;BME280;39642;47.556;18.728;2023-02-16T05:27:00;100779.19;;;21.88;23.97
51249;BME280;39642;47.556;18.728;2023-02-16T05:29:26;100783.56;;;21.89;23.84
51249;BME280;39642;47.556;18.728;2023-02-16T05:31:52;100782.63;;;21.90;23.68
51249;BME280;39642;47.556;18.728;2023-02-16T05:34:18;100781.75;;;21.90;23.97
51249;BME280;39642;47.556;18.728;2023-02-16T05:36:44;100779.13;;;21.90;23.75
51249;BME280;39642;47.556;18.728;2023-02-16T05:39:10;100780.91;;;21.89;23.66
51249;BME280;39642;47.556;18.728;2023-02-16T05:41:36;100772.87;;;21.91;25.15
51249;BME280;39642;47.556;18.728;2023-02-16T05:44:02;100778.94;;;21.93;26.46
51249;BME280;39642;47.556;18.728;2023-02-16T05:46:31;100776.22;;;21.94;25.60
51249;BME280;39642;47.556;18.728;2023-02-16T05:48:58;100778.03;;;21.94;24.49
51249;BME280;39642;47.556;18.728;2023-02-16T05:51:25;100770.16;;;21.92;24.22
51249;BME280;39642;47.556;18.728;2023-02-16T05:53:51;100776.31;;;21.93;24.59
51249;BME280;39642;47.556;18.728;2023-02-16T05:56:18;100771.88;;;21.93;24.93
51249;BME280;39642;47.556;18.728;2023-02-16T05:58:44;100770.94;;;21.94;24.90
51249;BME280;39642;47.556;18.728;2023-02-16T06:01:10;100776.22;;;21.94;25.85
51249;BME280;39642;47.556;18.728;2023-02-16T06:03:37;100774.44;;;21.95;24.44
51249;BME280;39642;47.556;18.728;2023-02-16T06:06:04;100774.38;;;21.96;25.28
51249;BME280;39642;47.556;18.728;2023-02-16T06:08:31;100774.38;;;21.96;24.69
51249;BME280;39642;47.556;18.728;2023-02-16T06:10:57;100771.72;;;21.96;25.16
51249;BME280;39642;47.556;18.728;2023-02-16T06:13:23;100769.06;;;21.96;24.49
51249;BME280;39642;47.556;18.728;2023-02-16T06:15:52;100758.47;;;21.96;25.41
51249;BME280;39642;47.556;18.728;2023-02-16T06:18:18;100767.19;;;21.98;24.94
51249;BME280;39642;47.556;18.728;2023-02-16T06:20:44;100763.75;;;21.96;24.88
51249;BME280;39642;47.556;18.728;2023-02-16T06:23:11;100768.22;;;21.96;25.36
51249;BME280;39642;47.556;18.728;2023-02-16T06:25:40;100766.41;;;21.96;25.23
51249;BME280;39642;47.556;18.728;2023-02-16T06:28:06;100768.22;;;21.96;25.44
51249;BME280;39642;47.556;18.728;2023-02-16T06:30:32;100766.47;;;21.95;25.55
51249;BME280;39642;47.556;18.728;2023-02-16T06:33:00;100765.63;;;21.94;25.57
51249;BME280;39642;47.556;18.728;2023-02-16T06:35:26;100766.72;;;21.90;26.49
51249;BME280;39642;47.556;18.728;2023-02-16T06:37:52;100756.94;;;21.91;26.09
51249;BME280;39642;47.556;18.728;2023-02-16T06:40:19;100758.63;;;21.93;26.75
51249;BME280;39642;47.556;18.728;2023-02-16T06:42:45;100757.84;;;21.91;26.89
51249;BME280;39642;47.556;18.728;2023-02-16T06:45:11;100758.75;;;21.90;27.03
51249;BME280;39642;47.556;18.728;2023-02-16T06:47:37;100753.62;;;21.87;27.17
51249;BME280;39642;47.556;18.728;2023-02-16T06:50:05;100753.62;;;21.87;27.73
51249;BME280;39642;47.556;18.728;2023-02-16T06:52:32;100757.06;;;21.89;27.76
51249;BME280;39642;47.556;18.728;2023-02-16T06:54:58;100763.38;;;21.87;26.80
51249;BME280;39642;47.556;18.728;2023-02-16T06:57:23;100757.06;;;21.89;25.43
51249;BME280;39642;47.556;18.728;2023-02-16T06:59:49;100761.50;;;21.89;26.96
51249;BME280;39642;47.556;18.728;2023-02-16T07:02:15;100752.59;;;21.90;26.02
51249;BME280;39642;47.556;18.728;2023-02-16T07:04:41;100764.22;;;21.87;25.30
51249;BME280;39642;47.556;18.728;2023-02-16T07:07:07;100760.84;;;21.83;25.48
51249;BME280;39642;47.556;18.728;2023-02-16T07:09:36;100771.38;;;21.85;25.39
51249;BME280;39642;47.556;18.728;2023-02-16T07:12:02;100758.13;;;21.85;25.65
51249;BME280;39642;47.556;18.728;2023-02-16T07:14:30;100757.12;;;21.88;25.22
51249;BME280;39642;47.556;18.728;2023-02-16T07:16:56;100762.34;;;21.89;25.24
51249;BME280;39642;47.556;18.728;2023-02-16T07:19:24;100767.50;;;21.92;25.13
51249;BME280;39642;47.556;18.728;2023-02-16T07:21:50;100764.78;;;21.94;25.45
51249;BME280;39642;47.556;18.728;2023-02-16T07:24:16;100767.25;;;21.97;25.56
51249;BME280;39642;47.556;18.728;2023-02-16T07:26:42;100770.78;;;21.97;25.14
51249;BME280;39642;47.556;18.728;2023-02-16T07:29:08;100769.00;;;21.98;25.54
51249;BME280;39642;47.556;18.728;2023-02-16T07:31:34;100769.78;;;22.00;25.60
51249;BME280;39642;47.556;18.728;2023-02-16T07:34:00;100768.00;;;22.00;25.63
51249;BME280;39642;47.556;18.728;2023-02-16T07:36:26;100770.53;;;22.02;25.77
51249;BME280;39642;47.556;18.728;2023-02-16T07:38:52;100776.63;;;22.04;26.37
51249;BME280;39642;47.556;18.728;2023-02-16T07:41:18;100771.19;;;22.07;26.57
51249;BME280;39642;47.556;18.728;2023-02-16T07:43:44;100779.06;;;22.09;27.00
51249;BME280;39642;47.556;18.728;2023-02-16T07:46:09;100771.03;;;22.10;28.08
51249;BME280;39642;47.556;18.728;2023-02-16T07:48:35;100776.34;;;22.10;28.77
51249;BME280;39642;47.556;18.728;2023-02-16T07:51:01;100771.88;;;22.11;25.57
51249;BME280;39642;47.556;18.728;2023-02-16T07:53:27;100773.63;;;22.12;25.36
51249;BME280;39642;47.556;18.728;2023-02-16T07:55:53;100777.06;;;22.14;25.62
51249;BME280;39642;47.556;18.728;2023-02-16T07:58:19;100772.59;;;22.14;25.83
51249;BME280;39642;47.556;18.728;2023-02-16T08:01:09;100775.19;;;22.16;25.02
51249;BME280;39642;47.556;18.728;2023-02-16T08:03:35;100772.53;;;22.16;24.84
51249;BME280;39642;47.556;18.728;2023-02-16T08:06:03;100767.22;;;22.16;25.06
51249;BME280;39642;47.556;18.728;2023-02-16T08:08:29;100766.28;;;22.17;24.98
51249;BME280;39642;47.556;18.728;2023-02-16T08:10:55;100765.38;;;22.18;24.62
51249;BME280;39642;47.556;18.728;2023-02-16T08:13:22;100764.41;;;22.19;24.49
51249;BME280;39642;47.556;18.728;2023-02-16T08:15:48;100776.72;;;22.20;25.05
51249;BME280;39642;47.556;18.728;2023-02-16T08:18:14;100775.87;;;22.19;24.33
51249;BME280;39642;47.556;18.728;2023-02-16T08:20:40;100768.66;;;22.23;24.34
51249;BME280;39642;47.556;18.728;2023-02-16T08:23:06;100766.88;;;22.23;24.33
51249;BME280;39642;47.556;18.728;2023-02-16T08:25:33;100766.88;;;22.23;24.43
51249;BME280;39642;47.556;18.728;2023-02-16T08:27:59;100773.03;;;22.24;24.39
51249;BME280;39642;47.556;18.728;2023-02-16T08:30:25;100777.41;;;22.25;24.39
51249;BME280;39642;47.556;18.728;2023-02-16T08:32:51;100775.63;;;22.26;24.38
51249;BME280;39642;47.556;18.728;2023-02-16T08:35:18;100774.59;;;22.28;24.45
51249;BME280;39642;47.556;18.728;2023-02-16T08:37:45;100780.75;;;22.29;24.58
51249;BME280;39642;47.556;18.728;2023-02-16T08:40:11;100784.19;;;22.31;24.62
51249;BME280;39642;47.556;18.728;2023-02-16T08:42:37;100782.37;;;22.31;24.99
51249;BME280;39642;47.556;18.728;2023-02-16T08:45:04;100782.31;;;22.33;25.78
51249;BME280;39642;47.556;18.728;2023-02-16T08:47:31;100781.47;;;22.32;25.38
51249;BME280;39642;47.556;18.728;2023-02-16T08:49:58;100778.88;;;22.31;25.36
51249;BME280;39642;47.556;18.728;2023-02-16T08:52:25;100771.03;;;22.29;25.45
51249;BME280;39642;47.556;18.728;2023-02-16T08:54:51;100779.13;;;22.26;26.11
51249;BME280;39642;47.556;18.728;2023-02-16T08:57:17;100775.69;;;22.24;26.34
51249;BME280;39642;47.556;18.728;2023-02-16T08:59:43;100778.44;;;22.22;26.21
51249;BME280;39642;47.556;18.728;2023-02-16T09:02:09;100776.72;;;22.20;26.43
51249;BME280;39642;47.556;18.728;2023-02-16T09:04:35;100773.31;;;22.18;26.58
51249;BME280;39642;47.556;18.728;2023-02-16T09:07:02;100783.16;;;22.16;26.91
51249;BME280;39642;47.556;18.728;2023-02-16T09:09:28;100784.78;;;22.18;27.81
51249;BME280;39642;47.556;18.728;2023-02-16T09:11:54;100781.28;;;22.18;28.46
51249;BME280;39642;47.556;18.728;2023-02-16T09:14:20;100782.97;;;22.19;28.86
51249;BME280;39642;47.556;18.728;2023-02-16T09:16:47;100778.53;;;22.19;28.60
51249;BME280;39642;47.556;18.728;2023-02-16T09:19:16;100777.69;;;22.19;28.84
51249;BME280;39642;47.556;18.728;2023-02-16T09:21:43;100783.94;;;22.18;29.55
51249;BME280;39642;47.556;18.728;2023-02-16T09:24:09;100779.47;;;22.18;29.74
51249;BME280;39642;47.556;18.728;2023-02-16T09:26:37;100777.84;;;22.16;30.23
51249;BME280;39642;47.556;18.728;2023-02-16T09:29:05;100779.72;;;22.14;30.38
51249;BME280;39642;47.556;18.728;2023-02-16T09:31:34;100777.06;;;22.14;29.42
51249;BME280;39642;47.556;18.728;2023-02-16T09:36:27;100775.31;;;22.13;30.17
51249;BME280;39642;47.556;18.728;2023-02-16T09:38:54;100775.25;;;22.14;29.12
51249;BME280;39642;47.556;18.728;2023-02-16T09:41:31;100779.72;;;22.14;29.20
51249;BME280;39642;47.556;18.728;2023-02-16T09:46:32;100779.59;;;22.15;28.76
51249;BME280;39642;47.556;18.728;2023-02-16T09:49:01;100777.91;;;22.14;28.28
51249;BME280;39642;47.556;18.728;2023-02-16T09:51:38;100783.16;;;22.16;28.86
51249;BME280;39642;47.556;18.728;2023-02-16T09:54:30;100782.37;;;22.14;28.97
51249;BME280;39642;47.556;18.728;2023-02-16T09:57:04;100780.63;;;22.13;28.96
51249;BME280;39642;47.556;18.728;2023-02-16T10:02:25;100772.53;;;22.16;28.67
51249;BME280;39642;47.556;18.728;2023-02-16T10:05:13;100763.84;;;22.12;28.64
51249;BME280;39642;47.556;18.728;2023-02-16T10:10:17;100772.53;;;22.16;28.53
51249;BME280;39642;47.556;18.728;2023-02-16T10:12:51;100769.00;;;22.15;28.58
51249;BME280;39642;47.556;18.728;2023-02-16T10:15:24;100776.72;;;22.20;28.47
51249;BME280;39642;47.556;18.728;2023-02-16T10:17:57;100768.66;;;22.23;28.38
51249;BME280;39642;47.556;18.728;2023-02-16T10:20:39;100768.50;;;22.26;28.30
51249;BME280;39642;47.556;18.728;2023-02-16T10:26:25;100762.72;;;22.35;28.17
51249;BME280;39642;47.556;18.728;2023-02-16T10:28:58;100756.50;;;22.36;28.32
51249;BME280;39642;47.556;18.728;2023-02-16T10:31:42;100753.06;;;22.34;28.19
51249;BME280;39642;47.556;18.728;2023-02-16T10:37:02;100737.22;;;22.33;28.26
51249;BME280;39642;47.556;18.728;2023-02-16T10:39:42;100739.88;;;22.33;28.20
51249;BME280;39642;47.556;18.728;2023-02-16T10:42:43;100739.88;;;22.33;28.16
51249;BME280;39642;47.556;18.728;2023-02-16T10:47:44;100730.34;;;22.29;29.11
51249;BME280;39642;47.556;18.728;2023-02-16T10:50:26;100727.00;;;22.25;29.14
51249;BME280;39642;47.556;18.728;2023-02-16T10:53:03;100728.94;;;22.21;29.35
51249;BME280;39642;47.556;18.728;2023-02-16T10:55:32;100725.78;;;22.13;30.13
51249;BME280;39642;47.556;18.728;2023-02-16T10:58:00;100725.88;;;22.12;30.41
51249;BME280;39642;47.556;18.728;2023-02-16T11:00:49;100727.56;;;22.13;30.27
51249;BME280;39642;47.556;18.728;2023-02-16T11:03:20;100719.56;;;22.14;30.61
51249;BME280;39642;47.556;18.728;2023-02-16T11:05:47;100723.91;;;22.15;30.77
51249;BME280;39642;47.556;18.728;2023-02-16T11:08:13;100720.34;;;22.16;30.89
51249;BME280;39642;47.556;18.728;2023-02-16T11:10:43;100709.66;;;22.18;30.77
51249;BME280;39642;47.556;18.728;2023-02-16T11:26:21;100693.28;;;22.94;31.54
51249;BME280;39642;47.556;18.728;2023-02-16T11:28:49;100693.28;;;22.94;31.54
51249;BME280;39642;47.556;18.728;2023-02-16T11:31:24;100688.34;;;22.37;31.68
51249;BME280;39642;47.556;18.728;2023-02-16T11:34:30;100686.56;;;22.37;31.81
51249;BME280;39642;47.556;18.728;2023-02-16T11:37:06;100682.03;;;22.39;32.44
51249;BME280;39642;47.556;18.728;2023-02-16T11:39:37;100685.78;;;22.35;32.70
51249;BME280;39642;47.556;18.728;2023-02-16T11:42:17;100686.12;;;22.29;33.46
51249;BME280;39642;47.556;18.728;2023-02-16T11:44:52;100676.19;;;22.33;35.37
51249;BME280;39642;47.556;18.728;2023-02-16T11:49:49;100678.06;;;22.31;33.73
51249;BME280;39642;47.556;18.728;2023-02-16T11:52:34;100667.37;;;22.32;33.84
51249;BME280;39642;47.556;18.728;2023-02-16T11:55:00;100663.87;;;22.32;34.31
51249;BME280;39642;47.556;18.728;2023-02-16T11:57:32;100659.41;;;22.32;34.35
51249;BME280;39642;47.556;18.728;2023-02-16T12:00:03;100651.63;;;22.29;32.93
51249;BME280;39642;47.556;18.728;2023-02-16T12:10:11;100644.09;;;22.20;33.58
51249;BME280;39642;47.556;18.728;2023-02-16T12:13:13;100632.56;;;22.21;33.43
51249;BME280;39642;47.556;18.728;2023-02-16T12:15:47;100630.81;;;22.20;33.82
51249;BME280;39642;47.556;18.728;2023-02-16T12:18:29;100625.69;;;22.17;33.77
51249;BME280;39642;47.556;18.728;2023-02-16T12:21:11;100625.75;;;22.15;32.82
51249;BME280;39642;47.556;18.728;2023-02-16T12:26:24;100624.13;;;22.13;33.05
51249;BME280;39642;47.556;18.728;2023-02-16T12:29:06;100623.28;;;22.12;32.63
51249;BME280;39642;47.556;18.728;2023-02-16T12:34:36;100614.31;;;22.15;31.57
51249;BME280;39642;47.556;18.728;2023-02-16T12:40:25;100609.84;;;22.15;34.69
51249;BME280;39642;47.556;18.728;2023-02-16T12:43:36;100602.78;;;22.16;34.26
51249;BME280;39642;47.556;18.728;2023-02-16T12:48:51;100601.09;;;22.13;34.36
51249;BME280;39642;47.556;18.728;2023-02-16T12:51:26;100595.97;;;22.10;33.49
51249;BME280;39642;47.556;18.728;2023-02-16T12:53:58;100588.97;;;22.09;33.23
51249;BME280;39642;47.556;18.728;2023-02-16T12:56:31;100587.34;;;22.07;33.62
51249;BME280;39642;47.556;18.728;2023-02-16T12:59:11;100591.75;;;22.06;33.60
51249;BME280;39642;47.556;18.728;2023-02-16T13:01:40;100576.81;;;22.05;34.28
51249;BME280;39642;47.556;18.728;2023-02-16T13:07:35;100566.97;;;22.07;32.87
51249;BME280;39642;47.556;18.728;2023-02-16T13:10:22;100570.31;;;22.11;33.73
51249;BME280;39642;47.556;18.728;2023-02-16T13:13:00;100556.91;;;22.14;33.37
51249;BME280;39642;47.556;18.728;2023-02-16T13:15:44;100555.94;;;22.15;31.70
51249;BME280;39642;47.556;18.728;2023-02-16T13:18:21;100553.22;;;22.16;32.78
51249;BME280;39642;47.556;18.728;2023-02-16T13:20:55;100550.41;;;22.19;31.84
51249;BME280;39642;47.556;18.728;2023-02-16T13:31:33;100546.88;;;22.19;30.64
51249;BME280;39642;47.556;18.728;2023-02-16T13:37:16;100542.63;;;22.16;30.96
51249;BME280;39642;47.556;18.728;2023-02-16T13:42:53;100540.09;;;22.13;30.73
51249;BME280;39642;47.556;18.728;2023-02-16T13:45:33;100544.50;;;22.14;30.95
51249;BME280;39642;47.556;18.728;2023-02-16T13:48:00;100548.00;;;22.15;30.30
51249;BME280;39642;47.556;18.728;2023-02-16T13:50:30;100541.91;;;22.13;30.51
51249;BME280;39642;47.556;18.728;2023-02-16T13:53:09;100541.91;;;22.13;31.22
51249;BME280;39642;47.556;18.728;2023-02-16T13:55:37;100540.22;;;22.12;32.36
51249;BME280;39642;47.556;18.728;2023-02-16T13:58:06;100535.75;;;22.12;33.03
51249;BME280;39642;47.556;18.728;2023-02-16T14:00:50;100538.47;;;22.11;32.50
51249;BME280;39642;47.556;18.728;2023-02-16T14:05:48;100542.09;;;22.10;34.21
51249;BME280;39642;47.556;18.728;2023-02-16T14:08:29;100533.28;;;22.09;34.60
51249;BME280;39642;47.556;18.728;2023-02-16T14:11:01;100530.69;;;22.08;36.13
51249;BME280;39642;47.556;18.728;2023-02-16T14:23:56;100542.72;;;21.97;33.86
51249;BME280;39642;47.556;18.728;2023-02-16T14:26:23;100541.87;;;21.97;33.65
51249;BME280;39642;47.556;18.728;2023-02-16T14:28:57;100539.13;;;21.98;33.13
51249;BME280;39642;47.556;18.728;2023-02-16T14:31:26;100539.31;;;21.95;31.86
51249;BME280;39642;47.556;18.728;2023-02-16T14:34:02;100539.47;;;21.92;32.35
51249;BME280;39642;47.556;18.728;2023-02-16T14:36:29;100532.34;;;21.93;33.32
51249;BME280;39642;47.556;18.728;2023-02-16T14:38:57;100535.87;;;21.93;33.24
51249;BME280;39642;47.556;18.728;2023-02-16T14:52:38;100533.13;;;21.95;33.09
51249;BME280;39642;47.556;18.728;2023-02-16T15:00:52;100532.28;;;21.94;32.59
51249;BME280;39642;47.556;18.728;2023-02-16T15:03:22;100526.81;;;21.97;32.24